Time;durP1;ratioP1;P1;durP2;ratioP2;P2;SDS_P1;SDS_P2;PMS_P1;PMS_P2;Temp;Humidity;BMP_temperature;BMP_pressure;BME280_temperature;BME280_humidity;BME280_pressure;Samples;Min_cycle;Max_cycle;Signal;HPM_P1;HPM_P2
2023/04/10 00:00:41;;;;;;;0.20;0.20;;;;;;;10.10;69.36;100436.59;5074941;28;20020;-64
2023/04/10 00:03:12;;;;;;;0.20;0.20;;;;;;;10.19;68.67;100432.50;5074350;28;20032;-63
2023/04/10 00:05:40;;;;;;;0.22;0.22;;;;;;;10.10;68.95;100433.81;5074911;28;20032;-64
2023/04/10 00:08:08;;;;;;;0.20;0.20;;;;;;;10.11;69.18;100436.22;5074463;28;20051;-63
2023/04/10 00:10:36;;;;;;;0.20;0.20;;;;;;;10.16;69.59;100426.84;5074512;28;20139;-63
2023/04/10 00:13:06;;;;;;;0.20;0.20;;;;;;;10.05;69.23;100422.94;5074094;28;20028;-63
2023/04/10 00:15:31;;;;;;;0.20;0.20;;;;;;;10.05;69.29;100411.81;5074039;28;20029;-63
2023/04/10 00:17:57;;;;;;;0.20;0.20;;;;;;;9.94;69.38;100414.28;5074219;28;20039;-63
2023/04/10 00:20:27;;;;;;;0.20;0.20;;;;;;;9.90;69.85;100411.41;5074572;28;20394;-63
2023/04/10 00:22:53;;;;;;;0.20;0.20;;;;;;;9.93;69.37;100407.13;5074154;28;20487;-63
2023/04/10 00:25:22;;;;;;;0.20;0.20;;;;;;;9.88;69.64;100405.41;5074192;28;20035;-62
2023/04/10 00:27:47;;;;;;;0.20;0.20;;;;;;;9.86;69.60;100401.38;5074066;28;20039;-64
2023/04/10 00:30:13;;;;;;;0.20;0.20;;;;;;;9.81;69.40;100404.41;5074129;28;20028;-64
2023/04/10 00:32:42;;;;;;;0.20;0.20;;;;;;;9.85;69.86;100403.31;5074008;28;20032;-64
2023/04/10 00:35:08;;;;;;;0.20;0.20;;;;;;;9.82;69.24;100400.44;5073666;28;20467;-63
2023/04/10 00:37:33;;;;;;;0.20;0.20;;;;;;;9.80;69.38;100398.03;5073837;28;20034;-63
2023/04/10 00:40:05;;;;;;;0.20;0.20;;;;;;;9.87;69.43;100397.44;5073564;28;20528;-63
2023/04/10 00:42:31;;;;;;;0.20;0.20;;;;;;;9.86;69.14;100393.84;5072996;28;20029;-63
2023/04/10 00:44:57;;;;;;;0.20;0.20;;;;;;;9.94;68.80;100395.66;5073433;28;20033;-63
2023/04/10 00:47:22;;;;;;;0.20;0.20;;;;;;;10.00;68.51;100390.66;5073978;28;20021;-63
2023/04/10 00:49:48;;;;;;;0.20;0.20;;;;;;;10.04;68.47;100385.19;5073367;28;20380;-64
2023/04/10 00:52:17;;;;;;;0.20;0.20;;;;;;;9.87;68.65;100381.56;5073387;28;20032;-64
2023/04/10 00:54:42;;;;;;;0.20;0.20;;;;;;;9.89;68.58;100382.00;5073614;28;20494;-65
2023/04/10 00:57:08;;;;;;;0.20;0.20;;;;;;;9.83;66.93;100377.84;5073266;28;20056;-67
2023/04/10 00:59:36;;;;;;;0.20;0.20;;;;;;;9.79;68.43;100371.38;5073770;28;20031;-64
2023/04/10 01:02:03;;;;;;;0.20;0.20;;;;;;;9.74;68.50;100379.97;5075307;28;20033;-63
2023/04/10 01:04:33;;;;;;;0.20;0.20;;;;;;;9.84;68.03;100375.88;5073929;28;20116;-63
2023/04/10 01:07:06;;;;;;;0.20;0.20;;;;;;;9.79;69.03;100368.59;5074206;28;20039;-64
2023/04/10 01:09:43;;;;;;;0.20;0.20;;;;;;;9.70;68.91;100365.19;5073591;28;20025;-64
2023/04/10 01:12:27;;;;;;;0.20;0.20;;;;;;;9.69;68.43;100371.88;5072971;28;20035;-63
2023/04/10 01:15:05;;;;;;;0.20;0.20;;;;;;;9.61;69.00;100367.28;5072932;28;20028;-63
2023/04/10 01:17:37;;;;;;;0.30;0.30;;;;;;;9.66;68.22;100369.81;5073653;28;20040;-62
2023/04/10 01:20:11;;;;;;;0.20;0.20;;;;;;;9.64;68.60;100372.13;5073382;28;20172;-63
2023/04/10 01:22:42;;;;;;;;;;;;;;;9.59;69.50;100369.63;5074499;28;20025;-63
2023/04/10 01:25:37;;;;;;;0.20;0.20;;;;;;;9.55;69.41;100369.50;5073587;28;19974;-64
2023/04/10 01:28:17;;;;;;;0.20;0.20;;;;;;;9.56;69.96;100367.53;5072728;28;20033;-63
2023/04/10 01:30:46;;;;;;;0.20;0.20;;;;;;;9.54;70.03;100356.78;5072674;28;20032;-63
2023/04/10 01:33:15;;;;;;;0.20;0.20;;;;;;;9.56;69.20;100364.75;5072670;28;20062;-63
2023/04/10 01:36:00;;;;;;;0.30;0.30;;;;;;;9.58;69.51;100362.41;5072635;28;20029;-64
2023/04/10 01:38:28;;;;;;;0.20;0.20;;;;;;;9.50;69.92;100349.50;5072814;28;20029;-62
2023/04/10 01:40:54;;;;;;;0.20;0.20;;;;;;;9.49;70.18;100354.25;5072578;28;20040;-63
2023/04/10 01:43:25;;;;;;;0.20;0.20;;;;;;;9.50;70.07;100349.50;5072263;28;20028;-62
2023/04/10 01:45:56;;;;;;;0.20;0.20;;;;;;;9.55;69.31;100343.69;5073067;28;20032;-63
2023/04/10 01:48:21;;;;;;;0.20;0.20;;;;;;;9.45;69.79;100336.66;5073523;28;20024;-63
2023/04/10 01:50:51;;;;;;;0.20;0.20;;;;;;;9.49;70.12;100337.59;5073028;28;20035;-63
2023/04/10 01:53:17;;;;;;;0.20;0.20;;;;;;;9.50;69.93;100338.38;5072326;28;20024;-64
2023/04/10 01:55:45;;;;;;;0.20;0.20;;;;;;;9.45;69.87;100340.25;5072456;28;20119;-63
2023/04/10 01:58:14;;;;;;;0.20;0.20;;;;;;;9.53;69.63;100338.47;5071962;28;20407;-62
2023/04/10 02:00:41;;;;;;;0.28;0.28;;;;;;;9.50;69.20;100332.84;5072670;28;20029;-63
2023/04/10 02:03:10;;;;;;;0.20;0.20;;;;;;;9.41;69.80;100331.00;5072677;28;20028;-63
2023/04/10 02:05:43;;;;;;;0.20;0.20;;;;;;;9.42;69.66;100327.06;5072634;28;20115;-64
2023/04/10 02:08:19;;;;;;;0.20;0.20;;;;;;;9.34;69.92;100324.44;5072352;28;20036;-63
2023/04/10 02:10:57;;;;;;;0.20;0.20;;;;;;;9.29;70.14;100319.94;5072534;28;20032;-64
2023/04/10 02:13:26;;;;;;;0.30;0.30;;;;;;;9.21;69.96;100312.53;5072280;28;20031;-65
2023/04/10 02:15:58;;;;;;;0.20;0.20;;;;;;;9.23;69.74;100317.75;5072319;28;20558;-64
2023/04/10 02:18:25;;;;;;;0.20;0.20;;;;;;;9.17;69.57;100308.84;5072141;28;20032;-63
2023/04/10 02:20:52;;;;;;;0.20;0.20;;;;;;;9.14;69.88;100315.91;5072736;28;20060;-65
2023/04/10 02:23:19;;;;;;;0.20;0.20;;;;;;;9.17;70.23;100317.19;5074496;28;20119;-63
2023/04/10 02:25:45;;;;;;;0.20;0.20;;;;;;;9.19;70.54;100306.53;5074784;28;20024;-64
2023/04/10 02:28:13;;;;;;;0.20;0.20;;;;;;;9.18;71.16;100318.78;5074034;28;20097;-65
2023/04/10 02:30:41;;;;;;;0.20;0.20;;;;;;;9.21;71.19;100304.19;5074366;28;20061;-66
2023/04/10 02:33:08;;;;;;;0.20;0.20;;;;;;;9.08;71.55;100299.84;5074391;28;20491;-64
2023/04/10 02:35:34;;;;;;;0.30;0.30;;;;;;;9.02;72.08;100304.84;5074369;28;20123;-66
2023/04/10 02:38:06;;;;;;;0.20;0.20;;;;;;;9.04;72.46;100310.03;5074274;28;20036;-64
2023/04/10 02:40:34;;;;;;;0.20;0.20;;;;;;;8.97;73.13;100312.59;5073177;28;20024;-64
2023/04/10 02:43:03;;;;;;;0.20;0.20;;;;;;;9.09;72.43;100312.56;5072756;28;20059;-63
2023/04/10 02:45:29;;;;;;;0.20;0.20;;;;;;;9.00;72.27;100296.06;5072050;28;20051;-63
2023/04/10 02:47:54;;;;;;;0.20;0.20;;;;;;;9.03;72.65;100303.66;5072468;28;20036;-65
2023/04/10 02:50:22;;;;;;;0.20;0.20;;;;;;;9.02;72.54;100307.59;5072037;28;20029;-62
2023/04/10 02:52:50;;;;;;;0.20;0.20;;;;;;;9.06;72.20;100299.41;5071866;28;20111;-63
2023/04/10 02:55:20;;;;;;;0.20;0.20;;;;;;;9.02;72.09;100306.81;5072110;28;20379;-64
2023/04/10 02:57:48;;;;;;;0.20;0.20;;;;;;;9.00;72.22;100309.09;5071443;28;20128;-63
2023/04/10 03:00:14;;;;;;;0.20;0.20;;;;;;;8.85;72.45;100303.13;5071799;28;20075;-63
2023/04/10 03:02:45;;;;;;;0.20;0.20;;;;;;;8.79;72.79;100315.63;5072060;28;20032;-63
2023/04/10 03:05:10;;;;;;;0.20;0.20;;;;;;;8.80;74.16;100311.69;5072782;28;20024;-64
2023/04/10 03:07:38;;;;;;;0.30;0.30;;;;;;;8.81;73.99;100307.75;5075327;28;20089;-62
2023/04/10 03:10:04;;;;;;;0.20;0.20;;;;;;;8.80;73.19;100308.91;5075883;28;20375;-63
2023/04/10 03:12:32;;;;;;;0.20;0.20;;;;;;;8.83;73.39;100302.66;5075004;28;20090;-63
2023/04/10 03:14:58;;;;;;;0.20;0.20;;;;;;;8.82;72.64;100305.78;5075201;28;20052;-64
2023/04/10 03:17:23;;;;;;;0.20;0.20;;;;;;;8.79;73.33;100298.97;5075092;28;20060;-64
2023/04/10 03:19:49;;;;;;;0.20;0.20;;;;;;;8.87;72.64;100292.47;5075437;28;20050;-63
2023/04/10 03:22:20;;;;;;;0.20;0.20;;;;;;;8.98;72.09;100297.53;5075394;28;20509;-64
2023/04/10 03:24:51;;;;;;;0.20;0.20;;;;;;;8.90;72.65;100305.66;5075581;28;20020;-63
2023/04/10 03:27:19;;;;;;;0.20;0.20;;;;;;;8.92;72.94;100297.78;5075024;28;20028;-64
2023/04/10 03:29:47;;;;;;;0.20;0.20;;;;;;;8.99;72.62;100302.75;5074980;28;20059;-64
2023/04/10 03:32:15;;;;;;;0.20;0.20;;;;;;;8.91;72.19;100290.63;5074947;28;20119;-63
2023/04/10 03:34:40;;;;;;;0.30;0.30;;;;;;;8.88;72.42;100293.28;5075719;28;20021;-64
2023/04/10 03:37:08;;;;;;;0.20;0.20;;;;;;;8.86;72.44;100293.63;5074783;28;20036;-63
2023/04/10 03:39:39;;;;;;;0.20;0.20;;;;;;;8.79;72.33;100293.41;5075235;28;20074;-64
2023/04/10 03:42:08;;;;;;;0.20;0.20;;;;;;;8.80;72.24;100289.47;5075229;28;20035;-63
2023/04/10 03:44:34;;;;;;;0.20;0.20;;;;;;;8.79;72.55;100296.19;5075414;28;20446;-64
2023/04/10 03:47:02;;;;;;;0.20;0.20;;;;;;;8.74;72.01;100285.34;5074578;28;20030;-63
2023/04/10 03:49:30;;;;;;;0.22;0.22;;;;;;;8.82;72.48;100298.25;5074825;28;20070;-64
2023/04/10 03:52:00;;;;;;;0.25;0.25;;;;;;;8.72;72.68;100287.63;5074872;28;20040;-64
2023/04/10 03:54:31;;;;;;;0.20;0.20;;;;;;;8.85;71.46;100292.03;5074486;28;20033;-64
2023/04/10 03:56:57;;;;;;;0.20;0.20;;;;;;;8.93;71.41;100293.03;5080357;28;20058;-63
2023/04/10 03:59:22;;;;;;;0.20;0.20;;;;;;;8.85;71.12;100294.78;5098554;28;20444;-65
2023/04/10 04:01:48;;;;;;;0.20;0.20;;;;;;;8.73;71.23;100300.34;5098095;28;20042;-65
2023/04/10 04:04:13;;;;;;;0.30;0.30;;;;;;;8.77;70.66;100298.50;5098070;28;20031;-63
2023/04/10 04:06:39;;;;;;;0.20;0.20;;;;;;;8.71;71.09;100299.88;5098417;28;20127;-64
2023/04/10 04:09:05;;;;;;;0.20;0.20;;;;;;;8.68;71.91;100306.13;5098398;28;20363;-66
2023/04/10 04:11:32;;;;;;;0.30;0.30;;;;;;;8.65;71.77;100306.81;5098820;28;20035;-65
2023/04/10 04:13:58;;;;;;;0.20;0.20;;;;;;;8.63;71.83;100300.81;5097982;28;20036;-63
2023/04/10 04:16:26;;;;;;;0.20;0.20;;;;;;;8.64;71.88;100299.66;5098296;28;20103;-62
2023/04/10 04:18:51;;;;;;;0.30;0.30;;;;;;;8.63;71.58;100296.09;5098219;28;20024;-64
2023/04/10 04:21:17;;;;;;;0.20;0.20;;;;;;;8.59;71.63;100297.13;5097818;28;20050;-64
2023/04/10 04:23:43;;;;;;;0.20;0.20;;;;;;;8.65;72.21;100292.97;5097252;28;20513;-63
2023/04/10 04:26:09;;;;;;;0.30;0.30;;;;;;;8.59;71.15;100291.56;5098065;28;20089;-64
2023/04/10 04:28:39;;;;;;;0.20;0.20;;;;;;;8.68;70.20;100305.31;5097469;28;20427;-65
2023/04/10 04:31:05;;;;;;;0.30;0.30;;;;;;;8.69;69.47;100304.19;5097062;28;20024;-64
2023/04/10 04:33:31;;;;;;;0.20;0.20;;;;;;;8.73;69.73;100305.06;5097349;28;20119;-64
2023/04/10 04:35:56;;;;;;;0.20;0.20;;;;;;;8.51;69.44;100278.63;5097363;28;20059;-63
2023/04/10 04:38:22;;;;;;;0.20;0.20;;;;;;;8.65;70.00;100306.81;5115495;28;20028;-63
2023/04/10 04:40:53;;;;;;;0.20;0.20;;;;;;;8.69;68.76;100310.53;5097509;28;20454;-64
2023/04/10 04:43:21;;;;;;;0.30;0.30;;;;;;;8.70;67.72;100306.59;5097770;28;20023;-64
2023/04/10 04:45:49;;;;;;;0.20;0.20;;;;;;;8.76;68.27;100316.28;5097448;28;20179;-63
2023/04/10 04:48:17;;;;;;;0.20;0.20;;;;;;;8.72;65.56;100318.13;5097411;28;20377;-63
2023/04/10 04:50:43;;;;;;;0.20;0.20;;;;;;;8.74;65.57;100301.16;5097562;28;20032;-64
2023/04/10 04:53:11;;;;;;;0.20;0.20;;;;;;;8.90;65.67;100305.66;5097597;28;20428;-62
2023/04/10 04:55:40;;;;;;;0.20;0.20;;;;;;;9.64;65.47;100316.56;5096920;28;20081;-65
2023/04/10 04:58:07;;;;;;;0.20;0.20;;;;;;;10.46;62.65;100311.28;5096378;28;20080;-63
2023/04/10 05:00:37;;;;;;;0.20;0.20;;;;;;;11.29;59.57;100322.34;5097129;28;20028;-63
2023/04/10 05:03:05;;;;;;;0.30;0.30;;;;;;;12.07;56.08;100323.19;5096787;28;20042;-64
2023/04/10 05:05:34;;;;;;;0.20;0.20;;;;;;;12.75;53.44;100332.78;5097296;28;20027;-63
2023/04/10 05:08:02;;;;;;;0.20;0.20;;;;;;;13.17;51.41;100329.03;5096773;28;20092;-64
2023/04/10 05:10:28;;;;;;;0.20;0.20;;;;;;;13.79;49.09;100332.28;5096991;28;20035;-63
2023/04/10 05:12:56;;;;;;;0.20;0.20;;;;;;;14.38;47.74;100327.72;5096628;28;20035;-64
2023/04/10 05:15:21;;;;;;;0.20;0.20;;;;;;;14.98;45.65;100329.47;5096930;28;20028;-62
2023/04/10 05:17:52;;;;;;;0.20;0.20;;;;;;;15.54;43.71;100325.41;5096440;28;20536;-64
2023/04/10 05:20:18;;;;;;;0.20;0.20;;;;;;;15.52;41.97;100336.22;5096777;28;20114;-63
2023/04/10 05:22:46;;;;;;;0.20;0.20;;;;;;;15.98;40.55;100331.66;5096390;28;20114;-64
2023/04/10 05:25:15;;;;;;;0.20;0.20;;;;;;;16.63;39.12;100343.00;5096386;28;20028;-62
2023/04/10 05:27:40;;;;;;;0.30;0.30;;;;;;;17.12;38.40;100336.59;5096430;28;20047;-63
2023/04/10 05:30:06;;;;;;;0.20;0.20;;;;;;;15.71;40.04;100336.75;5096538;28;20407;-64
2023/04/10 05:32:35;;;;;;;0.20;0.20;;;;;;;15.05;41.78;100335.94;5096128;28;20031;-67
2023/04/10 05:35:03;;;;;;;0.20;0.20;;;;;;;14.63;43.45;100342.78;5096213;28;20020;-63
2023/04/10 05:37:29;;;;;;;0.20;0.20;;;;;;;14.90;42.31;100339.81;5096052;28;20118;-64
2023/04/10 05:40:00;;;;;;;0.20;0.20;;;;;;;14.40;43.50;100344.94;5096411;28;20123;-62
2023/04/10 05:42:29;;;;;;;0.20;0.20;;;;;;;15.73;41.22;100341.16;5095444;28;20032;-68
2023/04/10 05:44:57;;;;;;;0.20;0.20;;;;;;;15.92;39.52;100352.03;5095809;28;20026;-64
2023/04/10 05:47:23;;;;;;;0.20;0.20;;;;;;;15.30;41.09;100352.13;5095955;28;20038;-64
2023/04/10 05:49:51;;;;;;;0.20;0.20;;;;;;;15.97;38.72;100346.03;5096306;28;20016;-65
2023/04/10 05:52:16;;;;;;;0.20;0.20;;;;;;;15.95;36.60;100354.06;5096011;28;20039;-65
2023/04/10 05:54:44;;;;;;;0.20;0.20;;;;;;;16.08;37.97;100351.69;5096222;28;20057;-64
2023/04/10 05:57:15;;;;;;;0.20;0.20;;;;;;;16.43;37.02;100340.56;5071146;28;20048;-65
2023/04/10 05:59:43;;;;;;;0.20;0.20;;;;;;;16.89;36.22;100361.50;5072274;28;20500;-62
2023/04/10 06:02:11;;;;;;;0.20;0.20;;;;;;;16.97;36.68;100363.09;5072301;28;20070;-63
2023/04/10 06:04:39;;;;;;;0.20;0.20;;;;;;;17.51;34.78;100352.56;5072539;28;20029;-63
2023/04/10 06:07:06;;;;;;;0.20;0.20;;;;;;;17.44;33.83;100361.03;5072217;28;20119;-64
2023/04/10 06:09:35;;;;;;;0.20;0.20;;;;;;;17.09;34.06;100365.50;5072222;28;20056;-64
2023/04/10 06:12:03;;;;;;;0.20;0.20;;;;;;;17.52;34.30;100366.25;5072212;28;20033;-63
2023/04/10 06:14:28;;;;;;;0.20;0.20;;;;;;;17.18;34.04;100367.91;5072427;28;20387;-64
2023/04/10 06:16:58;;;;;;;0.20;0.20;;;;;;;17.12;34.92;100370.31;5072150;28;20064;-63
2023/04/10 06:19:27;;;;;;;0.20;0.20;;;;;;;17.78;33.36;100369.78;5071988;28;20459;-64
2023/04/10 06:21:52;;;;;;;0.20;0.20;;;;;;;16.86;34.98;100381.97;5072057;28;20032;-63
2023/04/10 06:24:18;;;;;;;0.20;0.20;;;;;;;17.26;34.56;100375.94;5072032;28;20035;-64
2023/04/10 06:26:46;;;;;;;0.22;0.22;;;;;;;17.54;34.23;100371.47;5071860;28;20041;-65
2023/04/10 06:29:16;;;;;;;0.20;0.20;;;;;;;17.36;34.81;100376.31;5072212;28;20111;-63
2023/04/10 06:31:43;;;;;;;0.20;0.20;;;;;;;17.38;35.08;100379.53;5072578;28;20094;-63
2023/04/10 06:34:13;;;;;;;0.20;0.20;;;;;;;16.76;34.98;100381.56;5072939;28;20025;-65
2023/04/10 06:36:41;;;;;;;0.20;0.20;;;;;;;17.07;34.78;100375.53;5072581;28;20033;-62
2023/04/10 06:39:11;;;;;;;0.20;0.20;;;;;;;17.37;33.67;100375.91;5073131;28;20021;-62
2023/04/10 06:41:36;;;;;;;0.20;0.20;;;;;;;17.08;33.36;100377.16;5075319;28;20029;-63
2023/04/10 06:44:02;;;;;;;0.20;0.20;;;;;;;16.73;33.90;100371.13;5075767;28;20111;-62
2023/04/10 06:46:27;;;;;;;0.20;0.20;;;;;;;16.75;34.38;100379.94;5076234;28;20115;-62
2023/04/10 06:48:53;;;;;;;0.20;0.20;;;;;;;17.68;32.43;100379.03;5075933;28;20460;-62
2023/04/10 06:51:19;;;;;;;0.20;0.20;;;;;;;18.50;32.45;100378.72;5077283;28;20094;-61
2023/04/10 06:53:50;;;;;;;0.20;0.20;;;;;;;18.77;31.08;100376.94;5075497;28;20463;-67
2023/04/10 06:56:20;;;;;;;0.20;0.20;;;;;;;18.75;30.70;100379.38;5075989;28;20449;-61
2023/04/10 06:58:48;;;;;;;0.20;0.20;;;;;;;18.17;31.97;100377.28;5074958;28;20055;-62
2023/04/10 07:01:16;;;;;;;0.20;0.20;;;;;;;17.12;33.59;100378.75;5075108;28;20056;-61
2023/04/10 07:03:44;;;;;;;0.20;0.20;;;;;;;17.58;34.17;100383.50;5075576;28;20094;-61
2023/04/10 07:06:12;;;;;;;0.20;0.20;;;;;;;17.49;33.21;100375.47;5075204;28;20032;-61
2023/04/10 07:08:40;;;;;;;0.20;0.20;;;;;;;16.91;34.49;100373.94;5075215;28;20028;-61
2023/04/10 07:11:08;;;;;;;0.20;0.20;;;;;;;17.89;33.65;100372.56;5075663;28;20035;-62
2023/04/10 07:13:37;;;;;;;0.20;0.20;;;;;;;18.22;32.20;100366.41;5075366;28;20036;-62
2023/04/10 07:16:09;;;;;;;0.20;0.20;;;;;;;18.72;30.69;100368.91;5076362;28;20028;-62
2023/04/10 07:18:40;;;;;;;0.20;0.20;;;;;;;17.50;32.22;100377.09;5074858;28;20036;-62
2023/04/10 07:21:11;;;;;;;0.20;0.20;;;;;;;18.33;30.25;100369.94;5075024;28;20078;-62
2023/04/10 07:23:39;;;;;;;0.20;0.20;;;;;;;19.23;29.80;100369.28;5075184;28;20352;-62
2023/04/10 07:26:07;;;;;;;0.20;0.20;;;;;;;19.79;29.06;100339.69;5074612;28;20047;-62
2023/04/10 07:28:35;;;;;;;0.20;0.20;;;;;;;19.94;27.82;100357.25;5074690;28;20040;-62
2023/04/10 07:31:06;;;;;;;0.20;0.20;;;;;;;20.62;27.89;100367.66;5075166;28;20119;-61
2023/04/10 07:33:32;;;;;;;0.20;0.20;;;;;;;20.67;27.87;100362.31;5074553;28;20032;-62
2023/04/10 07:36:01;;;;;;;0.20;0.20;;;;;;;21.08;26.32;100368.91;5075061;28;20171;-62
2023/04/10 07:38:26;;;;;;;0.20;0.20;;;;;;;20.46;26.62;100361.81;5075118;28;20029;-62
2023/04/10 07:40:58;;;;;;;0.20;0.20;;;;;;;19.72;25.96;100368.00;5074859;28;20486;-61
2023/04/10 07:43:26;;;;;;;0.20;0.20;;;;;;;17.79;28.75;100362.97;5076281;28;20620;-62
2023/04/10 07:45:57;;;;;;;0.20;0.20;;;;;;;18.09;29.36;100359.63;5078142;28;20036;-63
2023/04/10 07:48:22;;;;;;;0.20;0.20;;;;;;;18.82;28.14;100358.78;5078147;28;20040;-62
2023/04/10 07:50:48;;;;;;;0.20;0.20;;;;;;;19.04;28.41;100368.66;5075687;28;20114;-63
2023/04/10 07:53:14;;;;;;;0.20;0.20;;;;;;;18.06;29.03;100366.88;5076287;28;20056;-62
2023/04/10 07:55:48;;;;;;;0.20;0.20;;;;;;;18.53;29.39;100358.13;5075346;28;20431;-63
2023/04/10 07:58:15;;;;;;;0.20;0.20;;;;;;;18.83;28.49;100363.19;5074173;28;20052;-62
2023/04/10 08:00:43;;;;;;;0.20;0.20;;;;;;;18.66;28.57;100364.91;5075253;28;20032;-62
2023/04/10 08:03:12;;;;;;;0.20;0.20;;;;;;;17.63;29.65;100365.38;5074423;28;20036;-63
2023/04/10 08:05:40;;;;;;;0.20;0.20;;;;;;;17.59;30.53;100365.41;5074325;28;20032;-62
2023/04/10 08:08:05;;;;;;;0.20;0.20;;;;;;;16.64;31.80;100367.88;5074837;28;20115;-62
2023/04/10 08:10:33;;;;;;;0.20;0.20;;;;;;;17.25;30.79;100363.06;5074547;28;20424;-63
2023/04/10 08:13:03;;;;;;;0.20;0.20;;;;;;;18.31;30.87;100361.09;5074172;28;20028;-63
2023/04/10 08:15:31;;;;;;;0.20;0.20;;;;;;;19.19;29.49;100369.34;5074123;28;20025;-62
2023/04/10 08:17:59;;;;;;;0.20;0.20;;;;;;;19.73;28.06;100363.94;5074454;28;20035;-60
2023/04/10 08:20:27;;;;;;;0.20;0.20;;;;;;;19.30;28.61;100364.38;5073736;28;20040;-63
2023/04/10 08:22:53;;;;;;;0.20;0.20;;;;;;;19.13;28.93;100375.84;5073685;28;20040;-61
2023/04/10 08:25:19;;;;;;;0.20;0.20;;;;;;;18.45;29.55;100367.88;5074487;28;20090;-62
2023/04/10 08:27:46;;;;;;;0.20;0.20;;;;;;;18.22;30.35;100372.03;5074265;28;20399;-62
2023/04/10 08:30:12;;;;;;;0.20;0.20;;;;;;;18.89;29.87;100378.44;5073892;28;20033;-61
2023/04/10 08:32:40;;;;;;;0.20;0.20;;;;;;;19.13;29.19;100373.03;5073624;28;20035;-62
2023/04/10 08:35:11;;;;;;;0.20;0.20;;;;;;;16.83;32.05;100365.91;5074189;28;20111;-62
2023/04/10 08:37:36;;;;;;;0.20;0.20;;;;;;;16.12;33.83;100380.59;5073866;28;20024;-61
2023/04/10 08:40:05;;;;;;;0.20;0.20;;;;;;;15.89;33.66;100378.09;5074181;28;20372;-66
2023/04/10 08:42:36;;;;;;;0.20;0.20;;;;;;;16.02;34.04;100365.31;5073842;28;20028;-62
2023/04/10 08:45:05;;;;;;;0.20;0.20;;;;;;;15.30;35.12;100380.16;5073577;28;20111;-62
2023/04/10 08:47:36;;;;;;;0.20;0.20;;;;;;;15.31;35.62;100374.16;5073616;28;20035;-64
2023/04/10 08:50:06;;;;;;;0.20;0.20;;;;;;;15.26;35.42;100373.72;5074030;28;20028;-62
2023/04/10 08:52:35;;;;;;;0.20;0.20;;;;;;;15.52;35.91;100381.09;5073790;28;20040;-64
2023/04/10 08:55:07;;;;;;;0.20;0.20;;;;;;;15.07;37.12;100386.78;5073374;28;20020;-62
2023/04/10 08:57:39;;;;;;;0.20;0.20;;;;;;;14.61;38.10;100377.97;5072935;28;20053;-61
2023/04/10 09:00:07;;;;;;;0.20;0.20;;;;;;;13.71;39.61;100376.13;5074327;28;20024;-61
2023/04/10 09:02:33;;;;;;;0.20;0.20;;;;;;;13.70;40.54;100373.72;5072537;28;20067;-62
2023/04/10 09:05:09;;;;;;;0.20;0.20;;;;;;;14.75;39.12;100388.50;5073157;28;20060;-62
2023/04/10 09:07:38;;;;;;;0.20;0.20;;;;;;;15.45;38.04;100384.66;5073907;28;20127;-62
2023/04/10 09:10:05;;;;;;;0.20;0.20;;;;;;;15.73;37.69;100381.22;5073051;28;20126;-62
2023/04/10 09:12:45;;;;;;;0.20;0.20;;;;;;;15.52;38.47;100386.69;5073292;28;20086;-62
2023/04/10 09:15:11;;;;;;;0.20;0.20;;;;;;;16.65;37.11;100372.28;5073040;28;20020;-62
2023/04/10 09:17:38;;;;;;;0.20;0.20;;;;;;;16.57;38.29;100381.91;5073176;28;20032;-62
2023/04/10 09:20:20;;;;;;;0.20;0.20;;;;;;;16.46;36.94;100350.22;5073711;28;20036;-63
2023/04/10 09:22:50;;;;;;;0.20;0.20;;;;;;;17.63;36.14;100371.84;5073150;28;20379;-62
2023/04/10 09:25:33;;;;;;;0.20;0.20;;;;;;;18.10;35.08;100377.31;5072878;28;20040;-62
2023/04/10 09:28:07;;;;;;;0.20;0.20;;;;;;;18.37;33.72;100380.38;5072766;28;20073;-62
2023/04/10 09:30:42;;;;;;;0.20;0.20;;;;;;;17.76;34.23;100381.47;5072682;28;20033;-62
2023/04/10 09:33:16;;;;;;;0.20;0.20;;;;;;;16.44;36.87;100375.06;5072725;28;20547;-62
2023/04/10 09:35:46;;;;;;;0.20;0.20;;;;;;;16.30;37.15;100391.88;5072660;28;20032;-62
2023/04/10 09:38:16;;;;;;;0.20;0.20;;;;;;;15.15;39.48;100379.25;5072612;28;20048;-62
2023/04/10 09:40:42;;;;;;;0.20;0.20;;;;;;;15.86;38.35;100379.69;5072667;28;20035;-62
2023/04/10 09:43:23;;;;;;;0.20;0.20;;;;;;;16.56;37.72;100390.72;5072895;28;20048;-62
2023/04/10 09:45:53;;;;;;;0.20;0.20;;;;;;;17.45;35.63;100377.50;5072574;28;20025;-62
2023/04/10 09:48:20;;;;;;;0.20;0.20;;;;;;;18.12;34.64;100363.63;5072830;28;20029;-62
2023/04/10 09:50:46;;;;;;;0.20;0.20;;;;;;;17.45;34.82;100376.69;5072790;28;20051;-62
2023/04/10 09:53:23;;;;;;;0.20;0.20;;;;;;;17.19;34.85;100381.53;5072748;28;20494;-62
2023/04/10 09:55:49;;;;;;;0.20;0.20;;;;;;;17.58;34.54;100386.31;5074281;28;20115;-62
2023/04/10 09:58:16;;;;;;;0.20;0.20;;;;;;;17.07;35.32;100396.03;5072081;28;20537;-62
2023/04/10 10:00:46;;;;;;;0.20;0.20;;;;;;;16.91;35.84;100387.19;5073418;28;20035;-63
2023/04/10 10:03:14;;;;;;;0.20;0.20;;;;;;;17.38;35.19;100379.53;5072420;28;20086;-62
2023/04/10 10:05:48;;;;;;;0.20;0.20;;;;;;;17.09;35.92;100371.13;5072433;28;20032;-62
2023/04/10 10:08:17;;;;;;;0.20;0.20;;;;;;;16.69;36.81;100381.53;5072345;28;20115;-62
2023/04/10 10:10:46;;;;;;;0.20;0.20;;;;;;;15.85;37.52;100377.28;5072295;28;20029;-62
2023/04/10 10:13:21;;;;;;;0.20;0.20;;;;;;;15.62;37.91;100380.34;5072557;28;20602;-62
2023/04/10 10:16:10;;;;;;;0.20;0.20;;;;;;;15.13;40.01;100371.22;5076250;28;20093;-62
2023/04/10 10:18:45;;;;;;;0.20;0.20;;;;;;;15.12;40.66;100364.00;5076280;28;20035;-62
2023/04/10 10:21:13;;;;;;;0.20;0.20;;;;;;;15.20;40.97;100362.88;5076933;28;20028;-62
2023/04/10 10:23:41;;;;;;;0.20;0.20;;;;;;;14.96;40.83;100380.28;5076313;28;20053;-62
2023/04/10 10:26:09;;;;;;;0.20;0.20;;;;;;;15.14;40.51;100372.84;5076773;28;20025;-61
2023/04/10 10:28:41;;;;;;;0.20;0.20;;;;;;;14.89;40.68;100377.44;5078398;28;20082;-62
2023/04/10 10:31:09;;;;;;;0.20;0.20;;;;;;;14.53;41.33;100377.09;5077475;28;20406;-62
2023/04/10 10:33:37;;;;;;;0.20;0.20;;;;;;;14.29;41.35;100384.03;5076041;28;20036;-62
2023/04/10 10:36:06;;;;;;;0.20;0.20;;;;;;;14.34;40.80;100368.88;5076628;28;20034;-62
2023/04/10 10:38:43;;;;;;;0.20;0.20;;;;;;;14.32;41.08;100365.66;5076225;28;20050;-62
2023/04/10 10:41:20;;;;;;;0.20;0.20;;;;;;;14.45;40.78;100364.19;5076186;28;20033;-62
2023/04/10 10:44:00;;;;;;;0.20;0.20;;;;;;;13.67;41.43;100364.09;5076095;28;20102;-62
2023/04/10 10:46:32;;;;;;;0.20;0.20;;;;;;;13.92;42.11;100364.41;5077680;28;20086;-62
2023/04/10 10:49:01;;;;;;;0.20;0.20;;;;;;;13.79;42.33;100365.84;5076011;28;20032;-62
2023/04/10 10:51:50;;;;;;;0.20;0.20;;;;;;;13.67;43.62;100368.88;5075685;28;20028;-62
2023/04/10 10:54:30;;;;;;;0.20;0.20;;;;;;;13.82;43.31;100370.69;5075583;28;20031;-62
2023/04/10 10:56:56;;;;;;;0.20;0.20;;;;;;;13.85;42.57;100367.13;5081502;28;20051;-62
2023/04/10 10:59:46;;;;;;;0.20;0.20;;;;;;;13.79;43.37;100368.63;5099290;28;20470;-62
2023/04/10 11:02:16;;;;;;;0.20;0.20;;;;;;;14.24;42.22;100375.19;5099260;28;20466;-62
2023/04/10 11:04:45;;;;;;;0.20;0.20;;;;;;;14.83;42.16;100367.78;5098875;28;20047;-62
2023/04/10 11:07:15;;;;;;;0.20;0.20;;;;;;;15.03;40.64;100352.34;5099901;28;20358;-62
2023/04/10 11:09:53;;;;;;;0.20;0.20;;;;;;;15.61;40.26;100365.53;5099649;28;20378;-63
2023/04/10 11:12:22;;;;;;;0.28;0.28;;;;;;;15.03;40.28;100366.34;5099073;28;20035;-62
2023/04/10 11:15:02;;;;;;;0.20;0.20;;;;;;;14.72;41.08;100358.47;5099014;28;20024;-62
2023/04/10 11:17:48;;;;;;;0.20;0.20;;;;;;;14.94;40.80;100360.25;5117814;28;20563;-64
2023/04/10 11:20:18;;;;;;;0.20;0.20;;;;;;;14.78;41.36;100342.94;5100256;28;20028;-62
2023/04/10 11:23:23;;;;;;;0.20;0.20;;;;;;;14.73;41.39;100374.09;5118555;28;20034;-62
2023/04/10 11:25:55;;;;;;;0.20;0.20;;;;;;;14.67;40.80;100359.63;4997408;28;20433;-62
2023/04/10 11:28:40;;;;;;;0.20;0.20;;;;;;;15.14;40.57;100349.59;5085022;28;20063;-62
2023/04/10 11:31:22;;;;;;;0.20;0.20;;;;;;;14.79;41.50;100358.53;5098660;28;20545;-64
2023/04/10 11:34:10;;;;;;;0.20;0.20;;;;;;;15.37;40.34;100366.16;5099269;28;20039;-62
2023/04/10 11:36:42;;;;;;;0.20;0.20;;;;;;;15.09;40.49;100378.00;5098425;28;20511;-62
2023/04/10 11:39:13;;;;;;;0.20;0.20;;;;;;;15.47;40.13;100351.41;5099059;28;20076;-61